createdAt,value
2023-05-25T00:04:26.885Z,76.90
2023-05-25T00:09:35.987Z,77.30
2023-05-25T00:14:45.074Z,77.10
2023-05-25T00:19:54.674Z,76.60
2023-05-25T00:25:04.381Z,77.30
2023-05-25T00:30:13.347Z,77.30
2023-05-25T00:35:22.474Z,76.90
2023-05-25T00:40:31.341Z,77.20
2023-05-25T00:45:40.619Z,77.30
2023-05-25T00:50:49.372Z,77.40
2023-05-25T00:55:58.492Z,77.40
2023-05-25T01:01:07.217Z,77.20
2023-05-25T01:06:16.484Z,78.40
2023-05-25T01:11:25.652Z,77.40
2023-05-25T01:16:35.197Z,76.60
2023-05-25T01:21:44.639Z,76.80
2023-05-25T01:26:54.027Z,77.00
2023-05-25T01:32:02.899Z,77.10
2023-05-25T01:37:12.273Z,78.70
2023-05-25T01:42:21.226Z,79.30
2023-05-25T01:47:30.046Z,77.90
2023-05-25T01:52:39.160Z,77.90
2023-05-25T01:57:48.332Z,77.50
2023-05-25T02:02:57.664Z,78.00
2023-05-25T02:08:06.831Z,77.60
2023-05-25T02:13:16.799Z,79.50
2023-05-25T02:18:26.859Z,78.00
2023-05-25T02:23:25.434Z,77.70
2023-05-25T02:28:34.584Z,78.60
2023-05-25T02:33:43.428Z,78.60
2023-05-25T02:38:53.298Z,78.80
2023-05-25T02:44:02.132Z,79.10
2023-05-25T02:49:11.273Z,78.10
2023-05-25T02:54:19.847Z,78.80
2023-05-25T02:59:29.059Z,80.40
2023-05-25T03:04:38.046Z,78.70
2023-05-25T03:09:46.952Z,81.70
2023-05-25T03:14:56.316Z,82.60
2023-05-25T03:20:05.458Z,82.40
2023-05-25T03:25:14.540Z,81.90
2023-05-25T03:30:23.586Z,81.70
2023-05-25T03:35:32.717Z,82.60
2023-05-25T03:40:42.349Z,83.40
2023-05-25T03:45:51.057Z,83.10
2023-05-25T03:51:01.051Z,81.40
2023-05-25T03:55:59.870Z,84.10
2023-05-25T04:01:09.324Z,84.30
2023-05-25T04:06:18.287Z,86.40
2023-05-25T04:11:28.394Z,86.50
2023-05-25T04:16:27.159Z,85.50
2023-05-25T04:21:36.899Z,85.40
2023-05-25T04:26:45.903Z,86.00
2023-05-25T04:31:55.202Z,86.10
2023-05-25T04:37:04.097Z,87.10
2023-05-25T04:47:22.243Z,83.30
2023-05-25T04:57:40.291Z,81.90
2023-05-25T05:02:49.848Z,82.90
2023-05-25T05:07:58.567Z,80.80
2023-05-25T05:13:07.765Z,81.90
2023-05-25T05:18:16.446Z,78.50
2023-05-25T05:23:26.533Z,76.50
2023-05-25T05:28:26.000Z,75.20
2023-05-25T05:33:35.645Z,72.90
2023-05-25T05:38:44.403Z,72.20
2023-05-25T05:43:53.513Z,69.90
2023-05-25T05:49:02.473Z,68.60
2023-05-25T05:54:11.376Z,66.30
2023-05-25T05:59:21.020Z,63.50
2023-05-25T06:04:30.455Z,63.70
2023-05-25T06:09:40.217Z,63.90
2023-05-25T06:14:49.778Z,63.90
2023-05-25T06:19:58.416Z,63.80
2023-05-25T06:25:07.761Z,64.30
2023-05-25T06:30:16.635Z,60.80
2023-05-25T06:35:26.226Z,61.10
2023-05-25T06:40:34.917Z,61.30
2023-05-25T06:45:44.653Z,62.70
2023-05-25T06:50:52.754Z,63.70
2023-05-25T06:56:03.528Z,61.20
2023-05-25T07:01:02.525Z,60.10
2023-05-25T07:06:11.318Z,60.80
2023-05-25T07:11:20.719Z,60.10
2023-05-25T07:16:30.010Z,60.20
2023-05-25T07:21:38.738Z,57.30
2023-05-25T07:26:47.835Z,56.30
2023-05-25T07:31:56.967Z,56.50
2023-05-25T07:37:06.451Z,57.50
2023-05-25T07:42:15.628Z,56.50
2023-05-25T07:47:25.008Z,56.60
2023-05-25T07:52:34.108Z,56.30
2023-05-25T07:57:43.530Z,53.10
2023-05-25T08:02:52.565Z,51.30
2023-05-25T08:08:01.881Z,49.70
2023-05-25T08:13:10.626Z,52.40
2023-05-25T08:18:20.251Z,49.30
2023-05-25T08:23:28.948Z,47.80
2023-05-25T08:28:38.103Z,48.70
2023-05-25T08:33:47.160Z,50.80
2023-05-25T08:38:56.491Z,48.90
2023-05-25T08:44:05.034Z,46.30
2023-05-25T08:49:14.252Z,49.90
2023-05-25T08:54:23.170Z,48.40
2023-05-25T08:59:32.343Z,50.70
2023-05-25T09:04:41.360Z,49.70
2023-05-25T09:09:50.558Z,45.60
2023-05-25T09:14:59.277Z,45.50
2023-05-25T09:20:08.535Z,45.00
2023-05-25T09:25:17.788Z,47.70
2023-05-25T09:30:27.961Z,46.20
2023-05-25T09:35:26.808Z,44.70
2023-05-25T09:40:35.821Z,41.20
2023-05-25T09:45:44.703Z,44.80
2023-05-25T09:50:54.909Z,42.50
2023-05-25T09:55:54.705Z,42.50
2023-05-25T10:01:03.433Z,41.60
2023-05-25T10:06:12.215Z,45.80
2023-05-25T10:11:21.318Z,41.80
2023-05-25T10:16:30.224Z,41.50
2023-05-25T10:21:39.260Z,42.10
2023-05-25T10:26:48.346Z,44.50
2023-05-25T10:31:57.828Z,44.70
2023-05-25T10:37:06.795Z,43.90
2023-05-25T10:42:16.208Z,44.70
2023-05-25T10:47:25.359Z,42.70
2023-05-25T10:52:34.515Z,42.30
2023-05-25T10:57:43.143Z,44.00
2023-05-25T11:02:53.038Z,42.70
2023-05-25T11:08:01.628Z,43.30
2023-05-25T11:13:10.960Z,41.00
2023-05-25T11:18:20.077Z,40.20
2023-05-25T11:23:31.312Z,41.90
2023-05-25T11:28:30.474Z,40.70
2023-05-25T11:33:40.127Z,40.70
2023-05-25T11:38:59.815Z,39.30
2023-05-25T11:43:58.272Z,40.90
2023-05-25T11:49:06.993Z,42.40
2023-05-25T11:54:16.944Z,39.00
2023-05-25T11:59:27.261Z,41.80
2023-05-25T12:04:34.773Z,40.70
2023-05-25T12:09:43.525Z,38.90
2023-05-25T12:14:52.790Z,40.50
2023-05-25T12:20:01.614Z,38.70
2023-05-25T12:25:10.810Z,41.20
2023-05-25T12:30:19.507Z,39.10
2023-05-25T12:35:28.761Z,39.00
2023-05-25T12:40:38.338Z,38.20
2023-05-25T12:45:47.717Z,38.70
2023-05-25T12:50:56.973Z,40.10
2023-05-25T12:56:07.248Z,40.70
2023-05-25T13:01:06.807Z,40.30
2023-05-25T13:06:16.179Z,39.00
2023-05-25T13:11:26.097Z,41.20
2023-05-25T13:16:35.758Z,40.60
2023-05-25T13:21:45.327Z,38.00
2023-05-25T13:26:54.897Z,37.40
2023-05-25T13:32:03.675Z,37.60
2023-05-25T13:37:13.598Z,41.30
2023-05-25T13:42:22.761Z,39.70
2023-05-25T13:47:32.686Z,41.70
2023-05-25T13:52:41.771Z,37.50
2023-05-25T13:57:51.016Z,38.40
2023-05-25T14:02:59.578Z,40.40
2023-05-25T14:08:09.209Z,38.40
2023-05-25T14:13:18.326Z,39.20
2023-05-25T14:18:28.126Z,40.20
2023-05-25T14:23:37.128Z,38.40
2023-05-25T14:28:46.260Z,39.40
2023-05-25T14:33:55.033Z,39.90
2023-05-25T14:39:04.945Z,39.20
2023-05-25T14:44:13.973Z,38.60
2023-05-25T14:49:23.084Z,37.60
2023-05-25T14:54:32.061Z,38.30
2023-05-25T14:59:41.750Z,36.00
2023-05-25T15:04:50.578Z,37.00
2023-05-25T15:09:59.653Z,34.50
2023-05-25T15:15:09.418Z,35.70
2023-05-25T15:20:19.126Z,32.60
2023-05-25T15:30:37.159Z,32.90
2023-05-25T15:35:46.713Z,31.10
2023-05-25T15:40:56.818Z,32.80
2023-05-25T15:45:56.258Z,31.00
2023-05-25T15:51:05.588Z,31.10
2023-05-25T15:56:14.875Z,30.00
2023-05-25T16:01:24.622Z,31.00
2023-05-25T16:06:33.407Z,30.90
2023-05-25T16:11:42.477Z,30.00
2023-05-25T16:16:51.571Z,29.50
2023-05-25T16:22:00.972Z,29.10
2023-05-25T16:27:09.856Z,29.60
2023-05-25T16:32:19.733Z,30.70
2023-05-25T16:37:28.400Z,31.10
2023-05-25T16:42:37.515Z,29.20
2023-05-25T16:47:47.290Z,29.10
2023-05-25T16:52:56.633Z,29.60
2023-05-25T16:58:05.885Z,31.50
2023-05-25T17:03:15.134Z,34.50
2023-05-25T17:08:23.834Z,33.30
2023-05-25T17:13:32.772Z,35.70
2023-05-25T17:18:41.799Z,36.90
2023-05-25T17:23:51.374Z,37.70
2023-05-25T17:29:01.157Z,41.30
2023-05-25T17:34:10.323Z,42.20
2023-05-25T17:39:19.371Z,43.30
2023-05-25T17:44:28.988Z,43.80
2023-05-25T17:49:37.788Z,44.60
2023-05-25T17:54:47.034Z,48.30
2023-05-25T17:59:56.382Z,49.60
2023-05-25T18:05:06.307Z,51.50
2023-05-25T18:10:15.773Z,52.50
2023-05-25T18:15:25.832Z,54.40
2023-05-25T18:20:24.397Z,55.60
2023-05-25T18:25:33.734Z,54.80
2023-05-25T18:30:43.288Z,56.50
2023-05-25T18:35:52.963Z,57.80
2023-05-25T18:41:03.544Z,58.90
2023-05-25T18:46:06.386Z,58.70
2023-05-25T18:51:05.063Z,59.00
2023-05-25T18:56:14.202Z,60.40
2023-05-25T19:01:23.126Z,60.90
2023-05-25T19:06:32.213Z,61.10
2023-05-25T19:11:41.282Z,62.00
2023-05-25T19:16:50.796Z,62.80
2023-05-25T19:21:59.620Z,62.40
2023-05-25T19:27:08.894Z,63.20
2023-05-25T19:32:17.909Z,64.10
2023-05-25T19:37:26.865Z,65.10
2023-05-25T19:42:35.736Z,65.40
2023-05-25T19:47:47.851Z,65.70
2023-05-25T19:57:56.656Z,66.30
2023-05-25T20:03:06.286Z,66.80
2023-05-25T20:18:33.224Z,66.70
2023-05-25T20:23:42.170Z,66.70
2023-05-25T20:28:51.498Z,66.70
2023-05-25T20:33:59.733Z,67.70
2023-05-25T20:39:09.491Z,68.00
2023-05-25T20:44:18.135Z,68.80
2023-05-25T20:49:27.464Z,68.20
2023-05-25T20:54:36.287Z,67.50
2023-05-25T20:59:45.575Z,68.50
2023-05-25T21:04:53.768Z,68.70
2023-05-25T21:10:02.632Z,68.30
2023-05-25T21:15:11.493Z,69.30
2023-05-25T21:20:20.640Z,69.00
2023-05-25T21:25:30.298Z,70.30
2023-05-25T21:30:39.436Z,70.60
2023-05-25T21:35:49.122Z,70.40
2023-05-25T21:40:58.852Z,69.90
2023-05-25T21:46:07.880Z,70.90
2023-05-25T21:51:17.492Z,70.40
2023-05-25T21:56:26.726Z,70.90
2023-05-25T22:01:36.630Z,70.40
2023-05-25T22:06:45.054Z,71.00
2023-05-25T22:11:54.112Z,70.40
2023-05-25T22:17:05.631Z,71.90
2023-05-25T22:22:04.620Z,71.90
2023-05-25T22:27:13.104Z,72.10
2023-05-25T22:32:22.319Z,72.20
2023-05-25T22:37:30.932Z,71.70
2023-05-25T22:42:40.303Z,72.20
2023-05-25T22:47:49.028Z,71.90
2023-05-25T22:52:58.406Z,72.80
2023-05-25T22:58:07.208Z,71.60
2023-05-25T23:03:16.220Z,71.70
2023-05-25T23:08:24.874Z,72.40
2023-05-25T23:13:33.998Z,72.30
2023-05-25T23:18:42.812Z,72.30
2023-05-25T23:23:51.851Z,73.00
2023-05-25T23:29:00.442Z,72.80
2023-05-25T23:34:09.300Z,73.40
2023-05-25T23:39:18.023Z,72.50
2023-05-25T23:44:27.096Z,73.60
2023-05-25T23:49:35.895Z,72.80
2023-05-25T23:54:44.984Z,74.00
2023-05-25T23:59:54.117Z,73.90
